sensor_id;sensor_type;location;lat;lon;timestamp;P1;durP1;ratioP1;P2;durP2;ratioP2
49826;SDS011;35715;51.570;6.036;2022-11-04T00:00:10;5.80;;;4.25;;
49826;SDS011;35715;51.570;6.036;2022-11-04T00:02:36;6.43;;;4.85;;
49826;SDS011;35715;51.570;6.036;2022-11-04T00:05:01;4.97;;;4.57;;
49826;SDS011;35715;51.570;6.036;2022-11-04T00:07:27;5.10;;;4.57;;
49826;SDS011;35715;51.570;6.036;2022-11-04T00:10:12;6.20;;;5.25;;
49826;SDS011;35715;51.570;6.036;2022-11-04T00:12:37;38.20;;;5.75;;
49826;SDS011;35715;51.570;6.036;2022-11-04T00:15:03;6.60;;;4.88;;
49826;SDS011;35715;51.570;6.036;2022-11-04T00:17:47;6.63;;;5.63;;
49826;SDS011;35715;51.570;6.036;2022-11-04T00:20:12;6.13;;;5.53;;
49826;SDS011;35715;51.570;6.036;2022-11-04T00:23:07;7.40;;;4.70;;
49826;SDS011;35715;51.570;6.036;2022-11-04T00:25:51;5.55;;;5.05;;
49826;SDS011;35715;51.570;6.036;2022-11-04T00:28:34;5.63;;;5.13;;
49826;SDS011;35715;51.570;6.036;2022-11-04T00:31:09;6.43;;;5.45;;
49826;SDS011;35715;51.570;6.036;2022-11-04T00:33:54;5.65;;;5.18;;
49826;SDS011;35715;51.570;6.036;2022-11-04T00:36:23;6.55;;;5.95;;
49826;SDS011;35715;51.570;6.036;2022-11-04T00:38:49;6.75;;;6.03;;
49826;SDS011;35715;51.570;6.036;2022-11-04T00:41:15;6.13;;;5.53;;
49826;SDS011;35715;51.570;6.036;2022-11-04T00:44:03;6.57;;;5.45;;
49826;SDS011;35715;51.570;6.036;2022-11-04T00:46:31;8.13;;;5.90;;
49826;SDS011;35715;51.570;6.036;2022-11-04T00:48:59;9.10;;;8.03;;
49826;SDS011;35715;51.570;6.036;2022-11-04T00:51:24;6.38;;;5.70;;
49826;SDS011;35715;51.570;6.036;2022-11-04T00:53:50;6.80;;;6.05;;
49826;SDS011;35715;51.570;6.036;2022-11-04T00:56:18;9.18;;;8.32;;
49826;SDS011;35715;51.570;6.036;2022-11-04T00:58:43;7.78;;;7.05;;
49826;SDS011;35715;51.570;6.036;2022-11-04T01:01:09;9.02;;;7.05;;
49826;SDS011;35715;51.570;6.036;2022-11-04T01:03:36;7.03;;;6.40;;
49826;SDS011;35715;51.570;6.036;2022-11-04T01:06:02;6.65;;;6.05;;
49826;SDS011;35715;51.570;6.036;2022-11-04T01:08:28;9.00;;;7.72;;
49826;SDS011;35715;51.570;6.036;2022-11-04T01:10:53;9.52;;;7.38;;
49826;SDS011;35715;51.570;6.036;2022-11-04T01:13:19;9.70;;;8.60;;
49826;SDS011;35715;51.570;6.036;2022-11-04T01:15:45;8.90;;;7.97;;
49826;SDS011;35715;51.570;6.036;2022-11-04T01:18:10;9.32;;;8.30;;
49826;SDS011;35715;51.570;6.036;2022-11-04T01:20:36;8.77;;;7.13;;
49826;SDS011;35715;51.570;6.036;2022-11-04T01:23:01;6.97;;;6.43;;
49826;SDS011;35715;51.570;6.036;2022-11-04T01:25:26;7.85;;;6.70;;
49826;SDS011;35715;51.570;6.036;2022-11-04T01:27:51;6.13;;;5.63;;
49826;SDS011;35715;51.570;6.036;2022-11-04T01:30:17;6.53;;;5.50;;
49826;SDS011;35715;51.570;6.036;2022-11-04T01:32:42;8.75;;;6.53;;
49826;SDS011;35715;51.570;6.036;2022-11-04T01:35:08;7.10;;;6.50;;
49826;SDS011;35715;51.570;6.036;2022-11-04T01:37:33;11.15;;;7.18;;
49826;SDS011;35715;51.570;6.036;2022-11-04T01:39:59;9.25;;;7.28;;
49826;SDS011;35715;51.570;6.036;2022-11-04T01:42:24;7.65;;;6.95;;
49826;SDS011;35715;51.570;6.036;2022-11-04T01:44:51;13.95;;;7.70;;
49826;SDS011;35715;51.570;6.036;2022-11-04T01:49:49;8.20;;;6.55;;
49826;SDS011;35715;51.570;6.036;2022-11-04T01:52:21;8.50;;;6.72;;
49826;SDS011;35715;51.570;6.036;2022-11-04T01:54:52;8.70;;;7.43;;
49826;SDS011;35715;51.570;6.036;2022-11-04T01:59:57;7.13;;;6.45;;
49826;SDS011;35715;51.570;6.036;2022-11-04T02:02:27;14.77;;;7.18;;
49826;SDS011;35715;51.570;6.036;2022-11-04T02:04:53;14.77;;;6.47;;
49826;SDS011;35715;51.570;6.036;2022-11-04T02:07:24;12.95;;;8.60;;
49826;SDS011;35715;51.570;6.036;2022-11-04T02:09:49;9.13;;;6.55;;
49826;SDS011;35715;51.570;6.036;2022-11-04T02:12:15;9.15;;;7.18;;
49826;SDS011;35715;51.570;6.036;2022-11-04T02:14:59;9.60;;;6.78;;
49826;SDS011;35715;51.570;6.036;2022-11-04T02:20:18;7.57;;;6.70;;
49826;SDS011;35715;51.570;6.036;2022-11-04T02:29:18;6.03;;;4.63;;
49826;SDS011;35715;51.570;6.036;2022-11-04T02:38:09;4.78;;;4.40;;
49826;SDS011;35715;51.570;6.036;2022-11-04T02:46:25;5.03;;;3.50;;
49826;SDS011;35715;51.570;6.036;2022-11-04T02:54:21;5.45;;;3.40;;
49826;SDS011;35715;51.570;6.036;2022-11-04T02:56:53;5.43;;;3.38;;
49826;SDS011;35715;51.570;6.036;2022-11-04T02:59:32;8.00;;;3.40;;
49826;SDS011;35715;51.570;6.036;2022-11-04T03:02:07;3.58;;;3.25;;
49826;SDS011;35715;51.570;6.036;2022-11-04T03:04:39;6.40;;;3.65;;
49826;SDS011;35715;51.570;6.036;2022-11-04T03:09:36;3.47;;;2.47;;
49826;SDS011;35715;51.570;6.036;2022-11-04T03:12:06;4.85;;;2.35;;
49826;SDS011;35715;51.570;6.036;2022-11-04T03:14:40;9.02;;;2.97;;
49826;SDS011;35715;51.570;6.036;2022-11-04T03:17:32;5.10;;;2.25;;
49826;SDS011;35715;51.570;6.036;2022-11-04T03:20:06;5.28;;;2.35;;
49826;SDS011;35715;51.570;6.036;2022-11-04T03:22:37;7.70;;;2.95;;
49826;SDS011;35715;51.570;6.036;2022-11-04T03:25:03;5.03;;;2.55;;
49826;SDS011;35715;51.570;6.036;2022-11-04T03:27:58;2.30;;;1.80;;
49826;SDS011;35715;51.570;6.036;2022-11-04T03:30:31;4.63;;;2.60;;
49826;SDS011;35715;51.570;6.036;2022-11-04T03:35:43;12.55;;;2.65;;
49826;SDS011;35715;51.570;6.036;2022-11-04T03:38:08;8.68;;;2.58;;
49826;SDS011;35715;51.570;6.036;2022-11-04T03:40:34;8.52;;;2.80;;
49826;SDS011;35715;51.570;6.036;2022-11-04T03:43:03;6.13;;;2.30;;
49826;SDS011;35715;51.570;6.036;2022-11-04T03:45:44;3.97;;;2.42;;
49826;SDS011;35715;51.570;6.036;2022-11-04T03:48:10;5.45;;;3.22;;
49826;SDS011;35715;51.570;6.036;2022-11-04T03:53:10;7.65;;;3.25;;
49826;SDS011;35715;51.570;6.036;2022-11-04T04:00:46;6.55;;;2.47;;
49826;SDS011;35715;51.570;6.036;2022-11-04T04:03:20;15.23;;;2.53;;
49826;SDS011;35715;51.570;6.036;2022-11-04T04:08:56;9.85;;;2.60;;
49826;SDS011;35715;51.570;6.036;2022-11-04T04:17:10;4.00;;;2.10;;
49826;SDS011;35715;51.570;6.036;2022-11-04T04:19:55;6.35;;;2.25;;
49826;SDS011;35715;51.570;6.036;2022-11-04T04:22:28;6.38;;;2.33;;
49826;SDS011;35715;51.570;6.036;2022-11-04T04:24:58;5.00;;;2.33;;
49826;SDS011;35715;51.570;6.036;2022-11-04T04:27:46;9.52;;;3.10;;
49826;SDS011;35715;51.570;6.036;2022-11-04T04:30:14;4.32;;;3.00;;
49826;SDS011;35715;51.570;6.036;2022-11-04T04:32:48;9.90;;;2.88;;
49826;SDS011;35715;51.570;6.036;2022-11-04T04:35:16;9.80;;;2.70;;
49826;SDS011;35715;51.570;6.036;2022-11-04T04:38:11;6.53;;;3.40;;
49826;SDS011;35715;51.570;6.036;2022-11-04T04:41:10;4.33;;;2.30;;
49826;SDS011;35715;51.570;6.036;2022-11-04T04:43:56;16.08;;;4.43;;
49826;SDS011;35715;51.570;6.036;2022-11-04T04:49:16;3.83;;;2.40;;
49826;SDS011;35715;51.570;6.036;2022-11-04T04:51:42;8.70;;;4.38;;
49826;SDS011;35715;51.570;6.036;2022-11-04T04:54:11;7.40;;;2.10;;
49826;SDS011;35715;51.570;6.036;2022-11-04T04:56:38;9.15;;;2.78;;
49826;SDS011;35715;51.570;6.036;2022-11-04T04:59:04;6.30;;;2.55;;
49826;SDS011;35715;51.570;6.036;2022-11-04T05:01:30;3.70;;;2.33;;
49826;SDS011;35715;51.570;6.036;2022-11-04T05:03:55;7.45;;;2.20;;
49826;SDS011;35715;51.570;6.036;2022-11-04T05:06:36;6.90;;;3.05;;
49826;SDS011;35715;51.570;6.036;2022-11-04T05:09:01;6.60;;;2.35;;
49826;SDS011;35715;51.570;6.036;2022-11-04T05:11:27;3.38;;;1.80;;
49826;SDS011;35715;51.570;6.036;2022-11-04T05:13:53;7.35;;;3.35;;
49826;SDS011;35715;51.570;6.036;2022-11-04T05:16:19;6.10;;;2.03;;
49826;SDS011;35715;51.570;6.036;2022-11-04T05:18:45;8.20;;;2.25;;
49826;SDS011;35715;51.570;6.036;2022-11-04T05:21:13;6.43;;;2.10;;
49826;SDS011;35715;51.570;6.036;2022-11-04T05:23:39;2.70;;;1.95;;
49826;SDS011;35715;51.570;6.036;2022-11-04T05:26:06;5.90;;;2.17;;
49826;SDS011;35715;51.570;6.036;2022-11-04T05:28:31;4.82;;;2.47;;
49826;SDS011;35715;51.570;6.036;2022-11-04T05:30:58;4.15;;;2.15;;
49826;SDS011;35715;51.570;6.036;2022-11-04T05:33:28;9.70;;;2.75;;
49826;SDS011;35715;51.570;6.036;2022-11-04T05:35:53;2.92;;;1.73;;
49826;SDS011;35715;51.570;6.036;2022-11-04T05:38:18;7.32;;;3.35;;
49826;SDS011;35715;51.570;6.036;2022-11-04T05:40:43;15.45;;;3.08;;
49826;SDS011;35715;51.570;6.036;2022-11-04T05:43:09;3.50;;;2.05;;
49826;SDS011;35715;51.570;6.036;2022-11-04T05:45:41;7.35;;;2.95;;
49826;SDS011;35715;51.570;6.036;2022-11-04T05:48:07;5.72;;;2.30;;
49826;SDS011;35715;51.570;6.036;2022-11-04T05:50:32;6.10;;;3.22;;
49826;SDS011;35715;51.570;6.036;2022-11-04T05:52:58;8.23;;;4.05;;
49826;SDS011;35715;51.570;6.036;2022-11-04T05:55:28;8.00;;;3.70;;
49826;SDS011;35715;51.570;6.036;2022-11-04T05:57:54;6.20;;;2.70;;
49826;SDS011;35715;51.570;6.036;2022-11-04T06:00:21;2.88;;;1.98;;
49826;SDS011;35715;51.570;6.036;2022-11-04T06:02:47;5.53;;;2.83;;
49826;SDS011;35715;51.570;6.036;2022-11-04T06:05:12;8.48;;;3.38;;
49826;SDS011;35715;51.570;6.036;2022-11-04T06:07:37;9.88;;;3.17;;
49826;SDS011;35715;51.570;6.036;2022-11-04T06:10:03;10.57;;;3.42;;
49826;SDS011;35715;51.570;6.036;2022-11-04T06:12:28;6.07;;;2.95;;
49826;SDS011;35715;51.570;6.036;2022-11-04T06:14:54;10.15;;;2.60;;
49826;SDS011;35715;51.570;6.036;2022-11-04T06:17:21;7.22;;;2.67;;
49826;SDS011;35715;51.570;6.036;2022-11-04T06:19:46;7.88;;;3.88;;
49826;SDS011;35715;51.570;6.036;2022-11-04T06:22:13;4.55;;;2.40;;
49826;SDS011;35715;51.570;6.036;2022-11-04T06:24:40;21.83;;;4.07;;
49826;SDS011;35715;51.570;6.036;2022-11-04T06:27:08;9.90;;;2.60;;
49826;SDS011;35715;51.570;6.036;2022-11-04T06:29:34;7.35;;;2.75;;
49826;SDS011;35715;51.570;6.036;2022-11-04T06:32:05;8.75;;;2.50;;
49826;SDS011;35715;51.570;6.036;2022-11-04T06:34:35;5.28;;;2.97;;
49826;SDS011;35715;51.570;6.036;2022-11-04T06:37:08;3.97;;;2.83;;
49826;SDS011;35715;51.570;6.036;2022-11-04T06:39:34;14.32;;;4.70;;
49826;SDS011;35715;51.570;6.036;2022-11-04T06:42:00;6.00;;;3.05;;
49826;SDS011;35715;51.570;6.036;2022-11-04T06:44:25;6.65;;;3.25;;
49826;SDS011;35715;51.570;6.036;2022-11-04T06:46:54;3.35;;;2.67;;
49826;SDS011;35715;51.570;6.036;2022-11-04T06:49:19;10.32;;;2.83;;
49826;SDS011;35715;51.570;6.036;2022-11-04T06:51:47;6.05;;;2.72;;
49826;SDS011;35715;51.570;6.036;2022-11-04T06:54:14;10.02;;;2.38;;
49826;SDS011;35715;51.570;6.036;2022-11-04T06:56:41;8.70;;;4.13;;
49826;SDS011;35715;51.570;6.036;2022-11-04T06:59:07;4.53;;;2.88;;
49826;SDS011;35715;51.570;6.036;2022-11-04T07:01:35;5.88;;;2.47;;
49826;SDS011;35715;51.570;6.036;2022-11-04T07:04:01;5.32;;;2.60;;
49826;SDS011;35715;51.570;6.036;2022-11-04T07:06:29;10.90;;;3.58;;
49826;SDS011;35715;51.570;6.036;2022-11-04T07:08:56;7.82;;;3.00;;
49826;SDS011;35715;51.570;6.036;2022-11-04T07:11:23;9.48;;;4.20;;
49826;SDS011;35715;51.570;6.036;2022-11-04T07:13:50;11.10;;;3.45;;
49826;SDS011;35715;51.570;6.036;2022-11-04T07:16:18;10.93;;;3.63;;
49826;SDS011;35715;51.570;6.036;2022-11-04T07:18:43;8.82;;;3.30;;
49826;SDS011;35715;51.570;6.036;2022-11-04T07:21:09;8.32;;;3.08;;
49826;SDS011;35715;51.570;6.036;2022-11-04T07:23:54;44.80;;;8.93;;
49826;SDS011;35715;51.570;6.036;2022-11-04T07:26:20;12.70;;;3.20;;
49826;SDS011;35715;51.570;6.036;2022-11-04T07:28:46;12.35;;;4.18;;
49826;SDS011;35715;51.570;6.036;2022-11-04T07:31:11;10.18;;;4.75;;
49826;SDS011;35715;51.570;6.036;2022-11-04T07:33:38;11.07;;;3.40;;
49826;SDS011;35715;51.570;6.036;2022-11-04T07:36:06;6.18;;;2.83;;
49826;SDS011;35715;51.570;6.036;2022-11-04T07:38:35;6.88;;;3.10;;
49826;SDS011;35715;51.570;6.036;2022-11-04T07:41:00;9.85;;;3.15;;
49826;SDS011;35715;51.570;6.036;2022-11-04T07:43:26;4.13;;;2.47;;
49826;SDS011;35715;51.570;6.036;2022-11-04T07:46:08;10.70;;;3.50;;
49826;SDS011;35715;51.570;6.036;2022-11-04T07:48:36;5.82;;;2.45;;
49826;SDS011;35715;51.570;6.036;2022-11-04T07:51:02;7.35;;;3.03;;
49826;SDS011;35715;51.570;6.036;2022-11-04T07:53:29;9.65;;;2.35;;
49826;SDS011;35715;51.570;6.036;2022-11-04T07:56:04;19.25;;;3.95;;
49826;SDS011;35715;51.570;6.036;2022-11-04T07:58:31;11.25;;;3.33;;
49826;SDS011;35715;51.570;6.036;2022-11-04T08:00:57;9.20;;;3.17;;
49826;SDS011;35715;51.570;6.036;2022-11-04T08:03:25;7.47;;;3.83;;
49826;SDS011;35715;51.570;6.036;2022-11-04T08:06:01;8.15;;;3.92;;
49826;SDS011;35715;51.570;6.036;2022-11-04T08:08:28;10.98;;;3.95;;
49826;SDS011;35715;51.570;6.036;2022-11-04T08:10:54;7.63;;;3.90;;
49826;SDS011;35715;51.570;6.036;2022-11-04T08:13:21;11.90;;;3.67;;
49826;SDS011;35715;51.570;6.036;2022-11-04T08:15:51;9.30;;;4.32;;
49826;SDS011;35715;51.570;6.036;2022-11-04T08:21:01;7.28;;;4.25;;
49826;SDS011;35715;51.570;6.036;2022-11-04T08:23:28;7.35;;;2.72;;
49826;SDS011;35715;51.570;6.036;2022-11-04T08:26:09;13.02;;;4.72;;
49826;SDS011;35715;51.570;6.036;2022-11-04T08:28:35;7.05;;;3.20;;
49826;SDS011;35715;51.570;6.036;2022-11-04T08:31:02;8.95;;;3.28;;
49826;SDS011;35715;51.570;6.036;2022-11-04T08:33:31;7.70;;;3.88;;
49826;SDS011;35715;51.570;6.036;2022-11-04T08:35:58;11.65;;;3.88;;
49826;SDS011;35715;51.570;6.036;2022-11-04T08:38:26;7.25;;;3.42;;
49826;SDS011;35715;51.570;6.036;2022-11-04T08:40:55;7.95;;;4.15;;
49826;SDS011;35715;51.570;6.036;2022-11-04T08:43:22;6.50;;;3.63;;
49826;SDS011;35715;51.570;6.036;2022-11-04T08:45:48;11.50;;;4.50;;
49826;SDS011;35715;51.570;6.036;2022-11-04T08:48:14;10.82;;;4.55;;
49826;SDS011;35715;51.570;6.036;2022-11-04T08:50:40;11.48;;;4.22;;
49826;SDS011;35715;51.570;6.036;2022-11-04T08:53:06;6.90;;;4.20;;
49826;SDS011;35715;51.570;6.036;2022-11-04T08:55:32;12.10;;;4.18;;
49826;SDS011;35715;51.570;6.036;2022-11-04T08:57:58;14.98;;;4.85;;
49826;SDS011;35715;51.570;6.036;2022-11-04T09:00:24;12.77;;;4.20;;
49826;SDS011;35715;51.570;6.036;2022-11-04T09:02:49;6.25;;;3.13;;
49826;SDS011;35715;51.570;6.036;2022-11-04T09:05:15;7.07;;;3.72;;
49826;SDS011;35715;51.570;6.036;2022-11-04T09:07:40;5.35;;;3.70;;
49826;SDS011;35715;51.570;6.036;2022-11-04T09:10:07;9.30;;;4.47;;
49826;SDS011;35715;51.570;6.036;2022-11-04T09:12:33;9.60;;;4.43;;
49826;SDS011;35715;51.570;6.036;2022-11-04T09:14:59;7.82;;;4.35;;
49826;SDS011;35715;51.570;6.036;2022-11-04T09:17:27;12.95;;;4.22;;
49826;SDS011;35715;51.570;6.036;2022-11-04T09:22:36;12.35;;;5.60;;
49826;SDS011;35715;51.570;6.036;2022-11-04T09:25:02;23.63;;;5.93;;
49826;SDS011;35715;51.570;6.036;2022-11-04T09:27:28;10.43;;;4.90;;
49826;SDS011;35715;51.570;6.036;2022-11-04T09:29:53;20.02;;;6.88;;
49826;SDS011;35715;51.570;6.036;2022-11-04T09:32:18;9.48;;;4.05;;
49826;SDS011;35715;51.570;6.036;2022-11-04T09:34:44;7.60;;;4.13;;
49826;SDS011;35715;51.570;6.036;2022-11-04T09:37:11;22.08;;;6.45;;
49826;SDS011;35715;51.570;6.036;2022-11-04T09:39:36;7.90;;;4.53;;
49826;SDS011;35715;51.570;6.036;2022-11-04T09:45:06;11.75;;;4.57;;
49826;SDS011;35715;51.570;6.036;2022-11-04T09:47:35;15.30;;;4.50;;
49826;SDS011;35715;51.570;6.036;2022-11-04T09:50:05;6.45;;;3.30;;
49826;SDS011;35715;51.570;6.036;2022-11-04T09:52:42;8.75;;;4.07;;
49826;SDS011;35715;51.570;6.036;2022-11-04T09:57:53;16.45;;;4.60;;
49826;SDS011;35715;51.570;6.036;2022-11-04T10:00:20;5.95;;;4.07;;
49826;SDS011;35715;51.570;6.036;2022-11-04T10:19:33;11.10;;;3.67;;
49826;SDS011;35715;51.570;6.036;2022-11-04T10:22:14;14.15;;;5.07;;
49826;SDS011;35715;51.570;6.036;2022-11-04T10:25:02;7.18;;;4.78;;
49826;SDS011;35715;51.570;6.036;2022-11-04T10:27:35;6.65;;;3.83;;
49826;SDS011;35715;51.570;6.036;2022-11-04T10:30:03;14.90;;;4.68;;
49826;SDS011;35715;51.570;6.036;2022-11-04T10:32:40;6.45;;;3.13;;
49826;SDS011;35715;51.570;6.036;2022-11-04T10:38:12;12.35;;;3.75;;
49826;SDS011;35715;51.570;6.036;2022-11-04T10:40:45;18.10;;;4.25;;
49826;SDS011;35715;51.570;6.036;2022-11-04T10:49:20;8.95;;;3.53;;
49826;SDS011;35715;51.570;6.036;2022-11-04T10:51:55;15.73;;;4.65;;
49826;SDS011;35715;51.570;6.036;2022-11-04T10:54:21;10.20;;;3.75;;
49826;SDS011;35715;51.570;6.036;2022-11-04T10:56:54;15.18;;;4.13;;
49826;SDS011;35715;51.570;6.036;2022-11-04T10:59:25;12.18;;;3.67;;
49826;SDS011;35715;51.570;6.036;2022-11-04T11:02:09;8.48;;;3.55;;
49826;SDS011;35715;51.570;6.036;2022-11-04T11:04:35;10.23;;;3.88;;
49826;SDS011;35715;51.570;6.036;2022-11-04T11:07:09;18.38;;;5.55;;
49826;SDS011;35715;51.570;6.036;2022-11-04T11:12:06;6.20;;;3.90;;
49826;SDS011;35715;51.570;6.036;2022-11-04T11:14:47;11.93;;;4.10;;
49826;SDS011;35715;51.570;6.036;2022-11-04T11:20:18;14.32;;;5.47;;
49826;SDS011;35715;51.570;6.036;2022-11-04T11:22:46;10.45;;;4.28;;
49826;SDS011;35715;51.570;6.036;2022-11-04T11:25:29;15.85;;;5.22;;
49826;SDS011;35715;51.570;6.036;2022-11-04T11:28:04;11.38;;;4.82;;
49826;SDS011;35715;51.570;6.036;2022-11-04T11:30:39;7.28;;;3.75;;
49826;SDS011;35715;51.570;6.036;2022-11-04T11:33:30;9.88;;;4.22;;
49826;SDS011;35715;51.570;6.036;2022-11-04T11:36:09;11.27;;;3.78;;
49826;SDS011;35715;51.570;6.036;2022-11-04T11:38:58;8.18;;;3.80;;
49826;SDS011;35715;51.570;6.036;2022-11-04T11:42:13;13.32;;;4.53;;
49826;SDS011;35715;51.570;6.036;2022-11-04T11:44:36;7.78;;;4.88;;
49826;SDS011;35715;51.570;6.036;2022-11-04T11:49:44;13.65;;;4.60;;
49826;SDS011;35715;51.570;6.036;2022-11-04T11:54:52;15.05;;;4.40;;
49826;SDS011;35715;51.570;6.036;2022-11-04T11:59:51;24.70;;;7.23;;
49826;SDS011;35715;51.570;6.036;2022-11-04T12:02:40;6.55;;;3.15;;
49826;SDS011;35715;51.570;6.036;2022-11-04T12:05:11;9.50;;;3.72;;
49826;SDS011;35715;51.570;6.036;2022-11-04T12:13:19;7.20;;;3.67;;
49826;SDS011;35715;51.570;6.036;2022-11-04T12:22:04;8.82;;;3.65;;
49826;SDS011;35715;51.570;6.036;2022-11-04T12:27:24;9.95;;;4.03;;
49826;SDS011;35715;51.570;6.036;2022-11-04T12:30:12;10.07;;;4.03;;
49826;SDS011;35715;51.570;6.036;2022-11-04T12:32:47;13.60;;;4.30;;
49826;SDS011;35715;51.570;6.036;2022-11-04T12:38:35;15.35;;;4.82;;
49826;SDS011;35715;51.570;6.036;2022-11-04T12:46:46;14.27;;;4.70;;
49826;SDS011;35715;51.570;6.036;2022-11-04T12:57:50;6.10;;;3.50;;
49826;SDS011;35715;51.570;6.036;2022-11-04T13:00:26;11.88;;;4.15;;
49826;SDS011;35715;51.570;6.036;2022-11-04T13:05:50;9.43;;;4.25;;
49826;SDS011;35715;51.570;6.036;2022-11-04T13:10:50;6.97;;;4.53;;
49826;SDS011;35715;51.570;6.036;2022-11-04T13:13:22;8.63;;;4.32;;
49826;SDS011;35715;51.570;6.036;2022-11-04T13:16:00;13.70;;;4.13;;
49826;SDS011;35715;51.570;6.036;2022-11-04T13:18:31;9.23;;;4.13;;
49826;SDS011;35715;51.570;6.036;2022-11-04T13:21:06;17.80;;;5.15;;
49826;SDS011;35715;51.570;6.036;2022-11-04T13:26:14;9.68;;;4.75;;
49826;SDS011;35715;51.570;6.036;2022-11-04T13:29:05;7.70;;;5.10;;
49826;SDS011;35715;51.570;6.036;2022-11-04T13:31:33;15.27;;;5.53;;
49826;SDS011;35715;51.570;6.036;2022-11-04T13:34:06;6.32;;;3.97;;
49826;SDS011;35715;51.570;6.036;2022-11-04T13:39:45;12.13;;;6.18;;
49826;SDS011;35715;51.570;6.036;2022-11-04T13:44:49;18.10;;;8.37;;
49826;SDS011;35715;51.570;6.036;2022-11-04T13:50:35;13.43;;;7.93;;
49826;SDS011;35715;51.570;6.036;2022-11-04T13:53:04;16.67;;;7.78;;
49826;SDS011;35715;51.570;6.036;2022-11-04T13:55:31;18.35;;;7.88;;
49826;SDS011;35715;51.570;6.036;2022-11-04T13:58:20;22.25;;;8.90;;
49826;SDS011;35715;51.570;6.036;2022-11-04T14:01:09;20.80;;;9.52;;
49826;SDS011;35715;51.570;6.036;2022-11-04T14:06:02;11.48;;;6.70;;
49826;SDS011;35715;51.570;6.036;2022-11-04T14:10:58;16.25;;;7.28;;
49826;SDS011;35715;51.570;6.036;2022-11-04T14:18:37;9.55;;;7.45;;
49826;SDS011;35715;51.570;6.036;2022-11-04T14:21:08;13.02;;;7.00;;
49826;SDS011;35715;51.570;6.036;2022-11-04T14:23:49;13.40;;;8.27;;
49826;SDS011;35715;51.570;6.036;2022-11-04T14:26:23;13.02;;;8.93;;
49826;SDS011;35715;51.570;6.036;2022-11-04T14:31:43;13.73;;;8.30;;
49826;SDS011;35715;51.570;6.036;2022-11-04T14:34:24;19.70;;;7.53;;
49826;SDS011;35715;51.570;6.036;2022-11-04T14:36:54;13.30;;;7.87;;
49826;SDS011;35715;51.570;6.036;2022-11-04T14:39:26;13.93;;;8.85;;
49826;SDS011;35715;51.570;6.036;2022-11-04T14:41:56;13.43;;;9.73;;
49826;SDS011;35715;51.570;6.036;2022-11-04T14:44:30;16.98;;;9.43;;
49826;SDS011;35715;51.570;6.036;2022-11-04T14:50:13;16.08;;;9.35;;
49826;SDS011;35715;51.570;6.036;2022-11-04T14:57:36;14.63;;;11.07;;
49826;SDS011;35715;51.570;6.036;2022-11-04T15:05:36;18.08;;;11.68;;
49826;SDS011;35715;51.570;6.036;2022-11-04T15:10:56;20.85;;;12.15;;
49826;SDS011;35715;51.570;6.036;2022-11-04T15:14:03;12.18;;;10.88;;
49826;SDS011;35715;51.570;6.036;2022-11-04T15:16:49;17.00;;;11.85;;
49826;SDS011;35715;51.570;6.036;2022-11-04T15:19:21;18.30;;;12.18;;
49826;SDS011;35715;51.570;6.036;2022-11-04T15:21:53;15.40;;;11.77;;
49826;SDS011;35715;51.570;6.036;2022-11-04T15:24:19;15.55;;;12.55;;
49826;SDS011;35715;51.570;6.036;2022-11-04T15:29:20;18.88;;;11.45;;
49826;SDS011;35715;51.570;6.036;2022-11-04T15:32:00;17.13;;;11.63;;
49826;SDS011;35715;51.570;6.036;2022-11-04T15:34:27;14.55;;;12.77;;
49826;SDS011;35715;51.570;6.036;2022-11-04T15:37:00;21.08;;;13.02;;
49826;SDS011;35715;51.570;6.036;2022-11-04T15:39:29;18.90;;;13.75;;
49826;SDS011;35715;51.570;6.036;2022-11-04T15:41:59;16.92;;;13.75;;
49826;SDS011;35715;51.570;6.036;2022-11-04T15:44:46;24.05;;;13.80;;
49826;SDS011;35715;51.570;6.036;2022-11-04T15:49:41;23.40;;;14.43;;
49826;SDS011;35715;51.570;6.036;2022-11-04T15:52:07;13.35;;;11.90;;
49826;SDS011;35715;51.570;6.036;2022-11-04T15:54:39;16.45;;;14.02;;
49826;SDS011;35715;51.570;6.036;2022-11-04T16:07:44;19.08;;;13.88;;
49826;SDS011;35715;51.570;6.036;2022-11-04T16:12:56;21.27;;;16.33;;
49826;SDS011;35715;51.570;6.036;2022-11-04T16:15:40;18.25;;;15.25;;
49826;SDS011;35715;51.570;6.036;2022-11-04T16:18:20;16.65;;;14.00;;
49826;SDS011;35715;51.570;6.036;2022-11-04T16:20:55;20.05;;;14.90;;
49826;SDS011;35715;51.570;6.036;2022-11-04T16:23:24;18.42;;;14.05;;
49826;SDS011;35715;51.570;6.036;2022-11-04T16:26:04;20.75;;;15.27;;
49826;SDS011;35715;51.570;6.036;2022-11-04T16:28:33;22.00;;;16.05;;
49826;SDS011;35715;51.570;6.036;2022-11-04T16:31:02;18.60;;;15.45;;
49826;SDS011;35715;51.570;6.036;2022-11-04T16:33:30;18.65;;;14.85;;
49826;SDS011;35715;51.570;6.036;2022-11-04T16:35:55;18.98;;;14.32;;
49826;SDS011;35715;51.570;6.036;2022-11-04T16:38:20;22.60;;;16.83;;
49826;SDS011;35715;51.570;6.036;2022-11-04T16:40:46;26.33;;;18.08;;
49826;SDS011;35715;51.570;6.036;2022-11-04T16:43:13;20.40;;;18.38;;
49826;SDS011;35715;51.570;6.036;2022-11-04T16:45:44;21.90;;;16.42;;
49826;SDS011;35715;51.570;6.036;2022-11-04T16:48:15;23.35;;;16.65;;
49826;SDS011;35715;51.570;6.036;2022-11-04T16:50:41;19.92;;;14.93;;
49826;SDS011;35715;51.570;6.036;2022-11-04T16:53:07;21.00;;;15.32;;
49826;SDS011;35715;51.570;6.036;2022-11-04T16:55:39;17.80;;;15.48;;
49826;SDS011;35715;51.570;6.036;2022-11-04T16:58:05;26.70;;;17.35;;
49826;SDS011;35715;51.570;6.036;2022-11-04T17:00:31;18.15;;;14.73;;
49826;SDS011;35715;51.570;6.036;2022-11-04T17:02:59;25.35;;;16.15;;
49826;SDS011;35715;51.570;6.036;2022-11-04T17:05:38;24.80;;;14.25;;
49826;SDS011;35715;51.570;6.036;2022-11-04T17:08:04;15.73;;;10.85;;
49826;SDS011;35715;51.570;6.036;2022-11-04T17:10:29;21.02;;;12.65;;
49826;SDS011;35715;51.570;6.036;2022-11-04T17:12:54;13.48;;;11.70;;
49826;SDS011;35715;51.570;6.036;2022-11-04T17:15:25;17.50;;;9.63;;
49826;SDS011;35715;51.570;6.036;2022-11-04T17:18:29;14.65;;;9.30;;
49826;SDS011;35715;51.570;6.036;2022-11-04T17:20:55;11.27;;;9.40;;
49826;SDS011;35715;51.570;6.036;2022-11-04T17:23:22;13.45;;;8.15;;
49826;SDS011;35715;51.570;6.036;2022-11-04T17:30:44;6.78;;;4.80;;
49826;SDS011;35715;51.570;6.036;2022-11-04T17:33:13;6.25;;;5.63;;
49826;SDS011;35715;51.570;6.036;2022-11-04T17:35:50;7.85;;;4.53;;
49826;SDS011;35715;51.570;6.036;2022-11-04T17:38:16;7.95;;;4.30;;
49826;SDS011;35715;51.570;6.036;2022-11-04T17:40:43;4.95;;;2.97;;
49826;SDS011;35715;51.570;6.036;2022-11-04T17:43:27;7.13;;;3.85;;
49826;SDS011;35715;51.570;6.036;2022-11-04T17:46:14;6.97;;;3.67;;
49826;SDS011;35715;51.570;6.036;2022-11-04T17:48:58;6.05;;;4.03;;
49826;SDS011;35715;51.570;6.036;2022-11-04T17:51:24;6.10;;;3.70;;
49826;SDS011;35715;51.570;6.036;2022-11-04T17:53:50;3.38;;;3.08;;
49826;SDS011;35715;51.570;6.036;2022-11-04T17:56:18;4.97;;;3.00;;
49826;SDS011;35715;51.570;6.036;2022-11-04T17:58:45;3.22;;;2.92;;
49826;SDS011;35715;51.570;6.036;2022-11-04T18:01:11;6.15;;;3.70;;
49826;SDS011;35715;51.570;6.036;2022-11-04T18:03:38;10.45;;;4.88;;
49826;SDS011;35715;51.570;6.036;2022-11-04T18:06:06;6.93;;;4.80;;
49826;SDS011;35715;51.570;6.036;2022-11-04T18:08:33;20.05;;;5.88;;
49826;SDS011;35715;51.570;6.036;2022-11-04T18:11:04;6.13;;;4.07;;
49826;SDS011;35715;51.570;6.036;2022-11-04T18:13:31;6.05;;;3.13;;
49826;SDS011;35715;51.570;6.036;2022-11-04T18:16:10;5.68;;;3.70;;
49826;SDS011;35715;51.570;6.036;2022-11-04T18:18:37;6.75;;;2.83;;
49826;SDS011;35715;51.570;6.036;2022-11-04T18:21:03;5.00;;;3.22;;
49826;SDS011;35715;51.570;6.036;2022-11-04T18:23:30;7.70;;;4.15;;
49826;SDS011;35715;51.570;6.036;2022-11-04T18:25:56;7.80;;;4.50;;
49826;SDS011;35715;51.570;6.036;2022-11-04T18:28:21;5.80;;;3.90;;